createdAt,value
2023-05-21T00:04:11.876Z,6.15
2023-05-21T00:09:14.686Z,6.20
2023-05-21T00:14:18.852Z,6.53
2023-05-21T00:19:21.724Z,8.02
2023-05-21T00:24:24.586Z,8.13
2023-05-21T00:29:30.164Z,7.72
2023-05-21T00:34:33.485Z,7.47
2023-05-21T00:39:36.554Z,7.50
2023-05-21T00:44:41.339Z,8.18
2023-05-21T00:49:44.262Z,6.93
2023-05-21T00:54:47.986Z,8.02
2023-05-21T00:59:53.879Z,7.85
2023-05-21T01:04:56.753Z,7.53
2023-05-21T01:09:59.590Z,8.35
2023-05-21T01:15:05.131Z,8.00
2023-05-21T01:20:11.155Z,8.18
2023-05-21T01:25:15.560Z,8.20
2023-05-21T01:30:19.689Z,8.20
2023-05-21T01:35:26.195Z,8.52
2023-05-21T01:40:38.288Z,8.95
2023-05-21T01:45:43.323Z,9.50
2023-05-21T01:50:47.357Z,8.07
2023-05-21T01:55:51.705Z,8.52
2023-05-21T02:00:54.781Z,8.00
2023-05-21T02:05:57.756Z,8.25
2023-05-21T02:11:02.000Z,8.52
2023-05-21T02:16:05.260Z,8.55
2023-05-21T02:21:08.156Z,9.10
2023-05-21T02:26:12.393Z,8.48
2023-05-21T02:31:15.435Z,8.27
2023-05-21T02:36:18.977Z,7.70
2023-05-21T02:41:23.382Z,8.63
2023-05-21T02:46:26.620Z,8.20
2023-05-21T02:51:29.537Z,8.00
2023-05-21T02:56:33.766Z,8.80
2023-05-21T03:01:37.436Z,8.80
2023-05-21T03:06:40.412Z,9.05
2023-05-21T03:11:45.170Z,8.82
2023-05-21T03:16:49.165Z,9.63
2023-05-21T03:21:54.628Z,9.35
2023-05-21T03:26:59.201Z,9.40
2023-05-21T03:32:03.040Z,9.20
2023-05-21T03:37:07.658Z,8.55
2023-05-21T03:42:14.088Z,8.65
2023-05-21T03:47:27.519Z,9.13
2023-05-21T03:52:31.023Z,8.20
2023-05-21T03:57:35.926Z,9.35
2023-05-21T04:02:38.976Z,8.55
2023-05-21T04:07:42.966Z,9.10
2023-05-21T04:12:49.171Z,10.63
2023-05-21T04:17:52.406Z,9.48
2023-05-21T04:22:55.514Z,9.40
2023-05-21T04:27:59.985Z,9.63
2023-05-21T04:33:02.967Z,10.90
2023-05-21T04:38:06.652Z,9.52
2023-05-21T04:43:11.427Z,10.20
2023-05-21T04:48:15.814Z,9.07
2023-05-21T04:53:18.930Z,10.13
2023-05-21T04:58:23.180Z,10.45
2023-05-21T05:03:26.820Z,10.85
2023-05-21T05:08:29.812Z,10.15
2023-05-21T05:13:35.462Z,10.73
2023-05-21T05:18:38.586Z,9.98
2023-05-21T05:23:41.648Z,10.00
2023-05-21T05:28:46.934Z,9.82
2023-05-21T05:33:50.368Z,9.52
2023-05-21T05:38:53.605Z,9.52
2023-05-21T05:43:58.759Z,9.13
2023-05-21T05:49:05.484Z,9.10
2023-05-21T05:54:08.367Z,9.50
2023-05-21T05:59:14.133Z,9.60
2023-05-21T06:04:23.095Z,9.38
2023-05-21T06:09:26.058Z,9.90
2023-05-21T06:14:30.283Z,9.35
2023-05-21T06:19:33.179Z,8.68
2023-05-21T06:24:36.506Z,9.43
2023-05-21T06:29:42.203Z,9.25
2023-05-21T06:34:45.175Z,9.82
2023-05-21T06:39:48.530Z,8.88
2023-05-21T06:44:52.950Z,9.07
2023-05-21T06:55:08.279Z,8.23
2023-05-21T07:00:36.552Z,7.30
2023-05-21T07:05:40.392Z,9.65
2023-05-21T07:10:43.449Z,10.23
2023-05-21T07:15:49.093Z,9.10
2023-05-21T07:20:52.050Z,9.88
2023-05-21T07:25:56.394Z,9.13
2023-05-21T07:31:01.012Z,9.63
2023-05-21T07:36:09.915Z,9.38
2023-05-21T07:41:12.898Z,11.05
2023-05-21T07:46:17.522Z,10.25
2023-05-21T07:51:21.934Z,10.73
2023-05-21T07:56:25.116Z,11.07
2023-05-21T08:01:29.982Z,10.90
2023-05-21T08:06:34.525Z,10.00
2023-05-21T08:11:37.919Z,12.02
2023-05-21T08:16:42.268Z,12.20
2023-05-21T08:21:45.204Z,12.55
2023-05-21T08:26:49.617Z,12.55
2023-05-21T08:31:53.937Z,11.80
2023-05-21T08:36:56.760Z,11.77
2023-05-21T08:42:36.454Z,11.82
2023-05-21T08:47:44.676Z,11.85
2023-05-21T08:52:48.476Z,11.60
2023-05-21T08:57:51.944Z,12.85
2023-05-21T09:02:56.492Z,11.60
2023-05-21T09:08:06.828Z,12.52
2023-05-21T09:13:21.770Z,12.75
2023-05-21T09:18:28.545Z,12.20
2023-05-21T09:23:41.007Z,11.82
2023-05-21T09:28:44.562Z,12.20
2023-05-21T09:33:49.038Z,12.48
2023-05-21T09:38:53.545Z,12.70
2023-05-21T09:44:00.278Z,12.13
2023-05-21T09:49:05.650Z,13.00
2023-05-21T09:54:12.368Z,11.70
2023-05-21T09:59:15.409Z,12.18
2023-05-21T10:04:20.094Z,11.95
2023-05-21T10:09:23.390Z,12.68
2023-05-21T10:14:28.747Z,12.77
2023-05-21T10:19:36.353Z,12.05
2023-05-21T10:24:40.655Z,12.77
2023-05-21T10:29:45.476Z,11.65
2023-05-21T10:34:50.472Z,12.13
2023-05-21T10:39:53.507Z,11.68
2023-05-21T10:45:11.387Z,12.50
2023-05-21T10:50:40.814Z,13.13
2023-05-21T10:55:58.394Z,12.85
2023-05-21T11:01:03.415Z,12.30
2023-05-21T11:06:08.490Z,13.48
2023-05-21T11:11:11.453Z,13.88
2023-05-21T11:16:18.603Z,12.77
2023-05-21T11:21:26.170Z,13.43
2023-05-21T11:26:30.588Z,13.52
2023-05-21T11:31:38.297Z,14.07
2023-05-21T11:36:45.625Z,14.77
2023-05-21T11:41:55.183Z,14.60
2023-05-21T11:46:58.899Z,14.57
2023-05-21T11:52:04.153Z,15.27
2023-05-21T11:57:08.031Z,14.63
2023-05-21T12:02:10.807Z,15.30
2023-05-21T12:07:16.062Z,14.90
2023-05-21T12:12:20.238Z,14.30
2023-05-21T12:17:24.920Z,14.35
2023-05-21T12:22:29.847Z,15.10
2023-05-21T12:27:34.721Z,15.18
2023-05-21T12:32:44.009Z,15.63
2023-05-21T12:37:48.335Z,14.52
2023-05-21T12:42:52.065Z,15.45
2023-05-21T12:47:56.492Z,15.02
2023-05-21T12:53:00.977Z,14.38
2023-05-21T12:58:05.403Z,16.55
2023-05-21T13:03:08.612Z,15.63
2023-05-21T13:08:14.353Z,15.20
2023-05-21T13:13:17.212Z,14.73
2023-05-21T13:18:20.845Z,16.60
2023-05-21T13:23:25.604Z,15.48
2023-05-21T13:28:29.285Z,16.58
2023-05-21T13:33:32.688Z,15.88
2023-05-21T13:38:36.954Z,15.98
2023-05-21T13:43:43.602Z,15.77
2023-05-21T13:48:46.394Z,15.82
2023-05-21T13:53:50.610Z,17.00
2023-05-21T13:58:53.414Z,16.33
2023-05-21T14:03:56.234Z,16.50
2023-05-21T14:09:00.538Z,15.95
2023-05-21T14:14:03.906Z,15.60
2023-05-21T14:19:06.756Z,16.63
2023-05-21T14:24:11.161Z,16.52
2023-05-21T14:29:14.041Z,16.48
2023-05-21T14:34:16.837Z,17.90
2023-05-21T14:39:21.027Z,16.85
2023-05-21T14:44:23.858Z,16.63
2023-05-21T14:49:26.725Z,17.63
2023-05-21T14:54:30.994Z,17.60
2023-05-21T14:59:33.871Z,16.60
2023-05-21T15:04:36.678Z,16.50
2023-05-21T15:09:41.018Z,15.93
2023-05-21T15:14:43.891Z,16.77
2023-05-21T15:19:46.739Z,16.15
2023-05-21T15:24:51.008Z,15.35
2023-05-21T15:29:53.943Z,15.30
2023-05-21T15:34:56.821Z,15.55
2023-05-21T15:40:01.139Z,15.55
2023-05-21T15:45:04.508Z,15.70
2023-05-21T15:50:09.362Z,15.02
2023-05-21T15:55:14.389Z,15.15
2023-05-21T16:00:17.632Z,15.77
2023-05-21T16:05:20.520Z,15.07
2023-05-21T16:10:24.859Z,14.98
2023-05-21T16:15:28.508Z,15.20
2023-05-21T16:20:31.355Z,15.85
2023-05-21T16:25:36.569Z,15.15
2023-05-21T16:30:39.764Z,15.02
2023-05-21T16:35:42.620Z,14.73
2023-05-21T16:40:47.205Z,15.02
2023-05-21T16:45:52.394Z,14.52
2023-05-21T16:50:55.317Z,13.50
2023-05-21T16:55:59.583Z,13.80
2023-05-21T17:01:03.796Z,14.20
2023-05-21T17:06:07.561Z,13.45
2023-05-21T17:11:12.016Z,13.75
2023-05-21T17:16:14.967Z,14.77
2023-05-21T17:21:18.491Z,13.13
2023-05-21T17:26:23.139Z,13.43
2023-05-21T17:31:26.055Z,12.73
2023-05-21T17:36:28.966Z,12.18
2023-05-21T17:41:33.182Z,11.70
2023-05-21T17:46:36.075Z,11.30
2023-05-21T17:51:39.573Z,11.43
2023-05-21T17:56:45.638Z,12.43
2023-05-21T18:01:49.385Z,12.55
2023-05-21T18:06:52.576Z,13.20
2023-05-21T18:11:58.209Z,13.70
2023-05-21T18:17:01.356Z,13.40
2023-05-21T18:22:05.059Z,13.55
2023-05-21T18:27:09.534Z,14.55
2023-05-21T18:32:14.364Z,14.30
2023-05-21T18:37:18.417Z,13.07
2023-05-21T18:42:22.649Z,14.32
2023-05-21T18:47:25.660Z,13.98
2023-05-21T18:52:28.570Z,14.85
2023-05-21T18:57:34.349Z,15.05
2023-05-21T19:02:38.405Z,14.32
2023-05-21T19:07:42.138Z,13.55
2023-05-21T19:12:46.765Z,13.57
2023-05-21T19:17:49.763Z,14.65
2023-05-21T19:22:52.671Z,14.60
2023-05-21T19:27:56.906Z,14.55
2023-05-21T19:32:59.884Z,14.55
2023-05-21T19:38:05.139Z,14.63
2023-05-21T19:43:09.737Z,14.80
2023-05-21T19:48:12.609Z,15.43
2023-05-21T19:53:15.563Z,14.30
2023-05-21T19:58:23.704Z,14.48
2023-05-21T20:03:28.007Z,15.60
2023-05-21T20:08:31.027Z,14.38
2023-05-21T20:13:35.301Z,14.00
2023-05-21T20:18:38.188Z,13.68
2023-05-21T20:23:41.200Z,13.95
2023-05-21T20:28:45.688Z,13.70
2023-05-21T20:33:50.642Z,14.20
2023-05-21T20:38:54.098Z,14.30
2023-05-21T20:43:58.972Z,14.18
2023-05-21T20:49:01.833Z,14.45
2023-05-21T20:54:04.822Z,14.40
2023-05-21T20:59:10.889Z,13.77
2023-05-21T21:04:14.274Z,15.00
2023-05-21T21:09:17.583Z,15.02
2023-05-21T21:14:21.832Z,15.45
2023-05-21T21:19:24.621Z,14.85
2023-05-21T21:24:27.464Z,14.35
2023-05-21T21:29:31.720Z,14.70
2023-05-21T21:34:34.609Z,14.35
2023-05-21T21:39:37.507Z,14.70
2023-05-21T21:44:42.130Z,15.23
2023-05-21T21:49:45.047Z,15.80
2023-05-21T21:54:48.145Z,15.55
2023-05-21T21:59:52.356Z,15.85
2023-05-21T22:04:55.752Z,15.95
2023-05-21T22:09:58.668Z,16.33
2023-05-21T22:15:05.374Z,14.95
2023-05-21T22:20:08.987Z,16.38
2023-05-21T22:25:11.779Z,16.33
2023-05-21T22:30:16.029Z,15.68
2023-05-21T22:35:19.727Z,16.60
2023-05-21T22:40:22.531Z,14.90
2023-05-21T22:45:26.687Z,15.30
2023-05-21T22:50:32.883Z,14.65
2023-05-21T22:55:35.863Z,15.60
2023-05-21T23:00:40.227Z,14.82
2023-05-21T23:05:43.427Z,15.05
2023-05-21T23:10:46.360Z,14.77
2023-05-21T23:15:51.438Z,14.52
2023-05-21T23:20:54.282Z,15.50
2023-05-21T23:25:57.726Z,15.77
2023-05-21T23:31:02.066Z,14.40
2023-05-21T23:36:05.193Z,16.33
2023-05-21T23:41:08.258Z,17.83
2023-05-21T23:46:12.509Z,19.52
2023-05-21T23:51:15.611Z,21.08
2023-05-21T23:56:18.365Z,22.17
